SCVM 240500Z 00000KT CAVOK 13/09 Q1015